Time,TemperatureF,DewpointF,PressureIn,WindDirection,WindDirectionDegrees,WindSpeedMPH,WindSpeedGustMPH,Humidity,HourlyPrecipIn,Conditions,Clouds,dailyrainin,SoftwareType,DateUTC
2013-04-29 00:03:00,43.9,23.0,29.81,South,181,9.0,-999.0,44,-99.99,,,0.00,weatherlink.com 1.10,2013-04-29 06:03:00,
2013-04-29 00:18:00,43.1,23.0,29.82,SE,144,7.0,-999.0,45,-99.99,,,0.00,weatherlink.com 1.10,2013-04-29 06:18:00,
2013-04-29 00:33:00,43.9,23.0,29.82,SSE,150,4.0,-999.0,43,-99.99,,,0.00,weatherlink.com 1.10,2013-04-29 06:33:00,
2013-04-29 00:48:00,44.5,22.0,29.82,SSW,198,6.0,-999.0,41,-99.99,,,0.00,weatherlink.com 1.10,2013-04-29 06:48:00,
2013-04-29 01:03:00,44.3,22.0,29.82,South,186,10.0,-999.0,41,-99.99,,,0.00,weatherlink.com 1.10,2013-04-29 07:03:00,
2013-04-29 01:18:00,44.1,22.0,29.84,South,187,7.0,-999.0,42,-99.99,,,0.00,weatherlink.com 1.10,2013-04-29 07:18:00,
2013-04-29 01:33:00,43.3,21.0,29.84,South,186,6.0,-999.0,42,-99.99,,,0.00,weatherlink.com 1.10,2013-04-29 07:33:00,
2013-04-29 01:48:00,43.3,21.0,29.83,South,183,11.0,-999.0,42,-99.99,,,0.00,weatherlink.com 1.10,2013-04-29 07:48:00,
2013-04-29 02:03:00,42.6,21.0,29.83,SSW,199,5.0,-999.0,43,-99.99,,,0.00,weatherlink.com 1.10,2013-04-29 08:03:00,
2013-04-29 02:18:00,41.5,21.0,29.82,South,186,2.0,-999.0,44,-99.99,,,0.00,weatherlink.com 1.10,2013-04-29 08:18:00,
2013-04-29 02:33:00,40.5,21.0,29.84,SSW,192,6.0,-999.0,46,-99.99,,,0.00,weatherlink.com 1.10,2013-04-29 08:33:00,
2013-04-29 02:48:00,41.7,21.0,29.84,South,184,5.0,-999.0,44,-99.99,,,0.00,weatherlink.com 1.10,2013-04-29 08:48:00,
2013-04-29 03:03:00,40.5,22.0,29.84,South,184,2.0,-999.0,47,-99.99,,,0.00,weatherlink.com 1.10,2013-04-29 09:03:00,
2013-04-29 03:18:00,38.8,21.0,29.84,SE,136,5.0,-999.0,50,-99.99,,,0.00,weatherlink.com 1.10,2013-04-29 09:18:00,
2013-04-29 03:33:00,36.7,21.0,29.84,ESE,120,5.0,-999.0,54,-99.99,,,0.00,weatherlink.com 1.10,2013-04-29 09:33:00,
2013-04-29 03:48:00,35.9,21.0,29.83,South,190,6.0,-999.0,54,-99.99,,,0.00,weatherlink.com 1.10,2013-04-29 09:48:00,
2013-04-29 04:03:00,38.1,21.0,29.83,South,182,5.0,-999.0,50,-99.99,,,0.00,weatherlink.com 1.10,2013-04-29 10:03:00,
2013-04-29 04:18:00,40.0,21.0,29.83,South,186,5.0,-999.0,46,-99.99,,,0.00,weatherlink.com 1.10,2013-04-29 10:18:00,
2013-04-29 04:33:00,39.5,21.0,29.83,SSE,167,3.0,-999.0,47,-99.99,,,0.00,weatherlink.com 1.10,2013-04-29 10:33:00,
2013-04-29 04:48:00,39.7,20.0,29.83,South,184,3.0,-999.0,46,-99.99,,,0.00,weatherlink.com 1.10,2013-04-29 10:48:00,
2013-04-29 05:03:00,39.6,20.0,29.83,South,184,2.0,-999.0,46,-99.99,,,0.00,weatherlink.com 1.10,2013-04-29 11:03:00,
2013-04-29 05:18:00,39.1,20.0,29.84,South,172,4.0,-999.0,47,-99.99,,,0.00,weatherlink.com 1.10,2013-04-29 11:18:00,
2013-04-29 05:33:00,39.9,21.0,29.83,SE,144,1.0,-999.0,47,-99.99,,,0.00,weatherlink.com 1.10,2013-04-29 11:33:00,
2013-04-29 05:48:00,39.8,21.0,29.83,SE,135,1.0,-999.0,48,-99.99,,,0.00,weatherlink.com 1.10,2013-04-29 11:48:00,
2013-04-29 06:03:00,40.5,23.0,29.81,South,189,5.0,-999.0,49,-99.99,,,0.00,weatherlink.com 1.10,2013-04-29 12:03:00,
2013-04-29 06:18:00,42.2,23.0,29.80,SSW,200,13.0,-999.0,46,-99.99,,,0.00,weatherlink.com 1.10,2013-04-29 12:18:00,
2013-04-29 06:33:00,43.3,23.0,29.80,SSW,196,13.0,-999.0,45,-99.99,,,0.00,weatherlink.com 1.10,2013-04-29 12:33:00,
2013-04-29 06:48:00,43.4,23.0,29.82,SSW,208,9.0,-999.0,45,-99.99,,,0.00,weatherlink.com 1.10,2013-04-29 12:48:00,
2013-04-29 07:03:00,43.4,24.0,29.82,South,191,12.0,-999.0,46,-99.99,,,0.00,weatherlink.com 1.10,2013-04-29 13:03:00,
2013-04-29 07:18:00,44.5,24.0,29.83,SSW,205,13.0,-999.0,44,-99.99,,,0.00,weatherlink.com 1.10,2013-04-29 13:18:00,
2013-04-29 07:33:00,44.6,24.0,29.82,South,186,11.0,-999.0,45,-99.99,,,0.00,weatherlink.com 1.10,2013-04-29 13:33:00,
2013-04-29 07:48:00,44.8,24.0,29.82,SSW,202,13.0,-999.0,44,-99.99,,,0.00,weatherlink.com 1.10,2013-04-29 13:48:00,
2013-04-29 08:03:00,45.0,24.0,29.82,SSE,161,12.0,-999.0,43,-99.99,,,0.00,weatherlink.com 1.10,2013-04-29 14:03:00,
2013-04-29 08:18:00,45.0,24.0,29.82,SSW,192,9.0,-999.0,44,-99.99,,,0.00,weatherlink.com 1.10,2013-04-29 14:18:00,
2013-04-29 08:33:00,45.7,24.0,29.81,SSW,198,9.0,-999.0,43,-99.99,,,0.00,weatherlink.com 1.10,2013-04-29 14:33:00,
2013-04-29 08:48:00,45.3,24.0,29.80,SSW,194,5.0,-999.0,43,-99.99,,,0.00,weatherlink.com 1.10,2013-04-29 14:48:00,
2013-04-29 09:03:00,45.5,24.0,29.80,South,182,6.0,-999.0,43,-99.99,,,0.00,weatherlink.com 1.10,2013-04-29 15:03:00,
2013-04-29 09:18:00,45.9,24.0,29.80,SSW,194,6.0,-999.0,43,-99.99,,,0.00,weatherlink.com 1.10,2013-04-29 15:18:00,
2013-04-29 09:33:00,46.1,25.0,29.79,SSW,194,10.0,-999.0,43,-99.99,,,0.00,weatherlink.com 1.10,2013-04-29 15:33:00,
2013-04-29 09:48:00,46.7,25.0,29.79,SSW,204,6.0,-999.0,43,-99.99,,,0.00,weatherlink.com 1.10,2013-04-29 15:48:00,
2013-04-29 10:03:00,47.5,26.0,29.78,South,186,6.0,-999.0,43,-99.99,,,0.00,weatherlink.com 1.10,2013-04-29 16:03:00,
2013-04-29 10:18:00,48.0,26.0,29.77,SSW,198,10.0,-999.0,42,-99.99,,,0.00,weatherlink.com 1.10,2013-04-29 16:18:00,
2013-04-29 10:33:00,48.5,26.0,29.76,SSW,194,9.0,-999.0,42,-99.99,,,0.00,weatherlink.com 1.10,2013-04-29 16:33:00,
2013-04-29 10:48:00,48.8,26.0,29.75,SW,234,11.0,-999.0,42,-99.99,,,0.00,weatherlink.com 1.10,2013-04-29 16:48:00,
2013-04-29 11:18:00,49.2,26.0,29.75,SSW,207,24.0,-999.0,41,-99.99,,,0.00,weatherlink.com 1.10,2013-04-29 17:18:00,
2013-04-29 11:33:00,49.4,26.0,29.74,SSW,212,20.0,-999.0,41,-99.99,,,0.00,weatherlink.com 1.10,2013-04-29 17:33:00,
2013-04-29 11:48:00,50.1,28.0,29.74,SW,232,18.0,-999.0,42,-99.99,,,0.00,weatherlink.com 1.10,2013-04-29 17:48:00,
2013-04-29 12:03:00,50.8,28.0,29.73,SW,234,25.0,-999.0,41,-99.99,,,0.00,weatherlink.com 1.10,2013-04-29 18:03:00,
2013-04-29 12:18:00,51.5,29.0,29.72,SW,234,20.0,-999.0,42,-99.99,,,0.00,weatherlink.com 1.10,2013-04-29 18:18:00,
2013-04-29 12:33:00,51.2,29.0,29.72,SW,221,18.0,-999.0,43,-99.99,,,0.00,weatherlink.com 1.10,2013-04-29 18:33:00,
2013-04-29 12:48:00,51.5,30.0,29.72,WSW,239,20.0,-999.0,44,-99.99,,,0.00,weatherlink.com 1.10,2013-04-29 18:48:00,
2013-04-29 13:03:00,52.6,31.0,29.70,SW,216,25.0,-999.0,44,-99.99,,,0.00,weatherlink.com 1.10,2013-04-29 19:03:00,
2013-04-29 13:18:00,53.6,31.0,29.70,SW,219,15.0,-999.0,42,-99.99,,,0.00,weatherlink.com 1.10,2013-04-29 19:18:00,
2013-04-29 13:33:00,54.0,32.0,29.69,SW,229,27.0,-999.0,43,-99.99,,,0.00,weatherlink.com 1.10,2013-04-29 19:33:00,
2013-04-29 13:48:00,53.8,33.0,29.68,SW,226,22.0,-999.0,45,-99.99,,,0.00,weatherlink.com 1.10,2013-04-29 19:48:00,
2013-04-29 14:03:00,53.6,33.0,29.66,SW,225,29.0,-999.0,45,-99.99,,,0.00,weatherlink.com 1.10,2013-04-29 20:03:00,
2013-04-29 14:18:00,53.9,33.0,29.66,WSW,242,19.0,-999.0,45,-99.99,,,0.00,weatherlink.com 1.10,2013-04-29 20:18:00,
2013-04-29 14:33:00,53.7,32.0,29.65,SW,227,22.0,-999.0,44,-99.99,,,0.00,weatherlink.com 1.10,2013-04-29 20:33:00,
2013-04-29 14:48:00,54.5,32.0,29.64,WSW,240,24.0,-999.0,43,-99.99,,,0.00,weatherlink.com 1.10,2013-04-29 20:48:00,
2013-04-29 15:03:00,53.3,32.0,29.64,SW,229,27.0,-999.0,45,-99.99,,,0.00,weatherlink.com 1.10,2013-04-29 21:03:00,
2013-04-29 15:18:00,54.0,32.0,29.62,SW,225,25.0,-999.0,44,-99.99,,,0.00,weatherlink.com 1.10,2013-04-29 21:18:00,
2013-04-29 15:33:00,53.6,31.0,29.62,SW,229,29.0,-999.0,43,-99.99,,,0.00,weatherlink.com 1.10,2013-04-29 21:33:00,
2013-04-29 15:48:00,53.2,31.0,29.61,SW,234,27.0,-999.0,43,-99.99,,,0.00,weatherlink.com 1.10,2013-04-29 21:48:00,
2013-04-29 16:03:00,53.1,32.0,29.60,SW,215,28.0,-999.0,44,-99.99,,,0.00,weatherlink.com 1.10,2013-04-29 22:03:00,
2013-04-29 16:18:00,52.9,30.0,29.60,SW,219,40.0,-999.0,42,-99.99,,,0.00,weatherlink.com 1.10,2013-04-29 22:18:00,
2013-04-29 16:33:00,52.3,29.0,29.60,WSW,240,36.0,-999.0,41,-99.99,,,0.00,weatherlink.com 1.10,2013-04-29 22:33:00,
2013-04-29 16:48:00,52.4,30.0,29.60,WSW,247,43.0,-999.0,43,-99.99,,,0.00,weatherlink.com 1.10,2013-04-29 22:48:00,
2013-04-29 17:03:00,52.2,30.0,29.59,SW,228,30.0,-999.0,43,-99.99,,,0.00,weatherlink.com 1.10,2013-04-29 23:03:00,
2013-04-29 17:18:00,52.3,31.0,29.60,WSW,246,25.0,-999.0,44,-99.99,,,0.00,weatherlink.com 1.10,2013-04-29 23:18:00,
2013-04-29 17:33:00,52.1,31.0,29.60,WSW,250,27.0,-999.0,45,-99.99,,,0.00,weatherlink.com 1.10,2013-04-29 23:33:00,
2013-04-29 17:48:00,52.1,32.0,29.60,SW,232,19.0,-999.0,46,-99.99,,,0.00,weatherlink.com 1.10,2013-04-29 23:48:00,
2013-04-29 18:03:00,52.2,31.0,29.60,WSW,244,29.0,-999.0,44,-99.99,,,0.00,weatherlink.com 1.10,2013-04-30 00:03:00,
2013-04-29 18:18:00,52.6,30.0,29.60,WSW,252,28.0,-999.0,43,-99.99,,,0.00,weatherlink.com 1.10,2013-04-30 00:18:00,
2013-04-29 18:33:00,51.8,30.0,29.61,WSW,248,23.0,-999.0,43,-99.99,,,0.00,weatherlink.com 1.10,2013-04-30 00:33:00,
2013-04-29 18:48:00,51.6,30.0,29.60,WSW,243,25.0,-999.0,43,-99.99,,,0.00,weatherlink.com 1.10,2013-04-30 00:48:00,
2013-04-29 19:03:00,51.4,28.0,29.60,WSW,239,32.0,-999.0,41,-99.99,,,0.00,weatherlink.com 1.10,2013-04-30 01:03:00,
2013-04-29 19:18:00,51.1,29.0,29.60,SW,232,16.0,-999.0,42,-99.99,,,0.00,weatherlink.com 1.10,2013-04-30 01:18:00,
2013-04-29 19:33:00,50.7,29.0,29.60,SSW,211,33.0,-999.0,43,-99.99,,,0.00,weatherlink.com 1.10,2013-04-30 01:33:00,
2013-04-29 19:48:00,50.7,29.0,29.61,WSW,239,38.0,-999.0,43,-99.99,,,0.00,weatherlink.com 1.10,2013-04-30 01:48:00,
2013-04-29 20:03:00,50.6,29.0,29.61,WSW,248,23.0,-999.0,44,-99.99,,,0.00,weatherlink.com 1.10,2013-04-30 02:03:00,
2013-04-29 20:18:00,50.5,29.0,29.62,WSW,248,22.0,-999.0,44,-99.99,,,0.00,weatherlink.com 1.10,2013-04-30 02:18:00,
2013-04-29 20:33:00,50.0,29.0,29.61,West,259,18.0,-999.0,44,-99.99,,,0.00,weatherlink.com 1.10,2013-04-30 02:33:00,
2013-04-29 20:48:00,50.4,27.0,29.62,WSW,248,17.0,-999.0,41,-99.99,,,0.00,weatherlink.com 1.10,2013-04-30 02:48:00,
2013-04-29 21:03:00,49.9,27.0,29.63,WSW,246,20.0,-999.0,42,-99.99,,,0.00,weatherlink.com 1.10,2013-04-30 03:03:00,
2013-04-29 21:18:00,50.0,27.0,29.64,WSW,254,18.0,-999.0,41,-99.99,,,0.00,weatherlink.com 1.10,2013-04-30 03:18:00,
2013-04-29 21:33:00,49.4,27.0,29.65,West,270,14.0,-999.0,42,-99.99,,,0.00,weatherlink.com 1.10,2013-04-30 03:33:00,
2013-04-29 21:48:00,45.7,26.0,29.66,NNW,329,13.0,-999.0,47,-99.99,,,0.00,weatherlink.com 1.10,2013-04-30 03:48:00,
2013-04-29 22:03:00,45.8,23.0,29.66,NW,316,11.0,-999.0,41,-99.99,,,0.00,weatherlink.com 1.10,2013-04-30 04:03:00,
2013-04-29 22:18:00,45.0,22.0,29.67,NW,313,9.0,-999.0,40,-99.99,,,0.00,weatherlink.com 1.10,2013-04-30 04:18:00,
2013-04-29 22:33:00,42.9,23.0,29.68,NW,326,4.0,-999.0,46,-99.99,,,0.00,weatherlink.com 1.10,2013-04-30 04:33:00,
2013-04-29 22:48:00,40.8,25.0,29.68,North,350,3.0,-999.0,53,-99.99,,,0.00,weatherlink.com 1.10,2013-04-30 04:48:00,
2013-04-29 23:03:00,39.5,25.0,29.68,North,5,3.0,-999.0,56,-99.99,,,0.00,weatherlink.com 1.10,2013-04-30 05:03:00,
2013-04-29 23:18:00,39.3,25.0,29.68,North,11,4.0,-999.0,57,-99.99,,,0.00,weatherlink.com 1.10,2013-04-30 05:18:00,
2013-04-29 23:33:00,39.8,25.0,29.68,NE,38,4.0,-999.0,56,-99.99,,,0.00,weatherlink.com 1.10,2013-04-30 05:33:00,
2013-04-29 23:48:00,40.4,25.0,29.68,NE,42,3.0,-999.0,54,-99.99,,,0.00,weatherlink.com 1.10,2013-04-30 05:48:00,